Anvle, Pennsylvania
Current Conditions -  °F | °C
As of 11:58 PM on Monday 20 Oct 2014 (Local Time) from KMUI Reporting Station
Overcast Overcast  
Wind Chill: 51°   Ceiling: 8000
Heat Index: 51°   Visibility: 10mi
Dew Point: 51°   Wind: 1mph
Humidity: 99%   Direction: 360°N
Pressure: 29.92"   Gusts: NA
Location:  40.43°N, 76.56°W
Report Text: KMUI 210358Z AUTO 36001KT 10SM OVC080 11/11 A2992 RMK AO2 SLPNO T01070106 $
Loading
Personal Weather Stations






























Interactive Weather Map
Tropical Storm Tracking
New forecast layout! Learn more

10-Day Weather Forecast

Advertisements
Track Severe Weather on mobile